Portada
METAR-TAF:

METAR-TAF

Aeroports :

Zouérat, Mauritània

latitud: 22-45-25N, longitud: 012-29-00W, altitud: 344 m

Observació

L'informe es va fer fa 21 hores i 36 minuts, a les 09:00 UTC
Vent 4 kt del Est/Sud-Est
Temperatura 18°C
Humitat 56%
Pressió 1021 hPa
Visibilitat 10 km o més
sense núvols per sota de 1500 mi sense presència de cumulonimbus.

METAR: GQPZ 280900Z 12004KT CAVOK 18/09 Q1021

Hora: 06:36 (06:36 UTC)


TAF: manca

Observacions i pronòstics meteorològics de més de 4000 aeroports (METAR i TAF).

Les estacions disponibles són els punts grocs i vermells al mapa.

Posi el ratolí al punt desitjat per veure el nom de l'estació.

Feu clic per veure les observacions i els pronòstics meteorològics.

Per canviar el mapa: feu clic els botons verds amb una creu de color negre per apropar; al botó verd amb un guió per allunyar la imatge; o en les fletxes verdes per a mapes adjacents.


METAR-TAF: